Aviation Digital Data Service (ADDS)

Output produced by METARs form (1329 UTC 15 November 2018)
found at http://www.aviationweather.gov/metar/data/
 
OLBA 151300Z 35006KT 320V020 8000 SCT026 21/11 Q1013 NOSIG
TAF COR OLBA 151000Z 1512/1618 29006KT 8000 SCT030 BKN080 
     BECMG 1515/1518 1518/1520 14006KT 
     BECMG 1521/1524 23015KT 6000 RA BKN023 
     TEMPO 1521/1612 23015G35KT 3000 TSRA FEW020CB BKN023